createdAt,value
2022-08-30T00:02:20.964Z,16.90
2022-08-30T00:04:48.835Z,16.90
2022-08-30T00:07:16.720Z,16.90
2022-08-30T00:09:44.401Z,16.90
2022-08-30T00:12:12.157Z,16.90
2022-08-30T00:14:39.754Z,16.80
2022-08-30T00:17:07.442Z,16.80
2022-08-30T00:19:35.055Z,16.70
2022-08-30T00:22:02.648Z,16.70
2022-08-30T00:24:30.992Z,16.60
2022-08-30T00:26:58.656Z,16.60
2022-08-30T00:29:26.306Z,16.60
2022-08-30T00:31:53.910Z,16.50
2022-08-30T00:34:21.616Z,16.40
2022-08-30T00:36:49.276Z,16.40
2022-08-30T00:39:16.870Z,16.40
2022-08-30T00:41:44.946Z,16.40
2022-08-30T00:44:12.828Z,16.40
2022-08-30T00:46:40.469Z,16.30
2022-08-30T00:49:11.460Z,16.30
2022-08-30T00:51:41.836Z,16.30
2022-08-30T00:54:10.251Z,16.30
2022-08-30T00:56:38.087Z,16.30
2022-08-30T00:59:07.866Z,16.20
2022-08-30T01:01:37.636Z,16.20
2022-08-30T01:04:08.831Z,16.20
2022-08-30T01:06:37.525Z,16.10
2022-08-30T01:09:06.090Z,16.10
2022-08-30T01:11:37.470Z,16.10
2022-08-30T01:14:06.614Z,16.00
2022-08-30T01:16:35.537Z,16.00
2022-08-30T01:19:03.886Z,16.00
2022-08-30T01:21:53.343Z,16.00
2022-08-30T01:24:21.616Z,16.00
2022-08-30T01:26:49.209Z,15.90
2022-08-30T01:29:23.118Z,15.90
2022-08-30T01:31:50.842Z,15.90
2022-08-30T01:34:19.368Z,15.90
2022-08-30T01:36:47.481Z,15.90
2022-08-30T01:39:17.657Z,15.90
2022-08-30T01:41:45.849Z,15.90
2022-08-30T01:44:14.160Z,15.90
2022-08-30T01:46:45.835Z,15.90
2022-08-30T01:49:16.416Z,15.90
2022-08-30T01:51:44.037Z,15.90
2022-08-30T01:54:12.186Z,15.90
2022-08-30T01:56:39.972Z,15.90
2022-08-30T01:59:07.938Z,15.90
2022-08-30T02:01:37.250Z,15.90
2022-08-30T02:04:06.124Z,15.90
2022-08-30T02:06:34.189Z,15.90
2022-08-30T02:09:01.836Z,15.90
2022-08-30T02:11:29.719Z,16.00
2022-08-30T02:13:57.328Z,16.00
2022-08-30T02:16:26.429Z,15.90
2022-08-30T02:18:57.254Z,15.90
2022-08-30T02:21:27.694Z,15.90
2022-08-30T02:23:55.827Z,15.90
2022-08-30T02:26:24.147Z,15.90
2022-08-30T02:28:53.301Z,15.90
2022-08-30T02:31:22.961Z,15.90
2022-08-30T02:33:52.642Z,15.80
2022-08-30T02:36:21.564Z,15.80
2022-08-30T02:38:50.334Z,15.80
2022-08-30T02:41:19.470Z,15.70
2022-08-30T02:43:47.616Z,15.70
2022-08-30T02:46:15.587Z,15.70
2022-08-30T02:48:43.356Z,15.60
2022-08-30T02:51:13.436Z,15.60
2022-08-30T02:53:42.675Z,15.50
2022-08-30T02:56:12.175Z,15.50
2022-08-30T02:58:42.514Z,15.40
2022-08-30T03:01:13.128Z,15.40
2022-08-30T03:03:41.547Z,15.40
2022-08-30T03:06:10.554Z,15.40
2022-08-30T03:08:38.435Z,15.30
2022-08-30T03:11:06.611Z,15.30
2022-08-30T03:13:34.321Z,15.20
2022-08-30T03:16:02.405Z,15.20
2022-08-30T03:18:30.187Z,15.20
2022-08-30T03:20:57.830Z,15.20
2022-08-30T03:23:25.564Z,15.20
2022-08-30T03:25:53.610Z,15.10
2022-08-30T03:28:21.469Z,15.10
2022-08-30T03:30:49.189Z,15.10
2022-08-30T03:33:18.532Z,15.10
2022-08-30T03:35:48.214Z,15.10
2022-08-30T03:38:16.165Z,15.00
2022-08-30T03:40:43.918Z,15.00
2022-08-30T03:43:12.113Z,15.00
2022-08-30T03:45:40.559Z,15.00
2022-08-30T03:48:08.216Z,14.90
2022-08-30T03:50:36.938Z,14.90
2022-08-30T03:53:04.631Z,14.90
2022-08-30T03:55:32.226Z,14.90
2022-08-30T03:57:59.916Z,14.90
2022-08-30T04:00:27.625Z,14.90
2022-08-30T04:02:55.378Z,14.80
2022-08-30T04:05:23.232Z,14.80
2022-08-30T04:07:50.956Z,14.80
2022-08-30T04:10:21.313Z,14.80
2022-08-30T04:12:51.729Z,14.80
2022-08-30T04:15:19.923Z,14.70
2022-08-30T04:17:48.223Z,14.70
2022-08-30T04:20:17.012Z,14.70
2022-08-30T04:22:45.609Z,14.70
2022-08-30T04:25:15.687Z,14.70
2022-08-30T04:27:45.798Z,14.70
2022-08-30T04:30:19.195Z,14.60
2022-08-30T04:32:46.881Z,14.60
2022-08-30T04:35:15.074Z,14.60
2022-08-30T04:37:42.697Z,14.50
2022-08-30T04:40:11.150Z,14.60
2022-08-30T04:42:38.875Z,14.60
2022-08-30T04:45:10.786Z,14.50
2022-08-30T04:47:39.446Z,14.50
2022-08-30T04:50:09.017Z,14.50
2022-08-30T04:52:37.124Z,14.50
2022-08-30T04:55:05.522Z,14.50
2022-08-30T04:57:33.442Z,14.60
2022-08-30T05:00:01.362Z,14.60
2022-08-30T05:02:29.036Z,14.70
2022-08-30T05:05:15.093Z,14.80
2022-08-30T05:07:42.676Z,14.80
2022-08-30T05:10:11.464Z,14.90
2022-08-30T05:12:40.879Z,15.00
2022-08-30T05:15:09.945Z,15.10
2022-08-30T05:17:41.144Z,15.10
2022-08-30T05:20:10.732Z,15.10
2022-08-30T05:22:40.045Z,15.20
2022-08-30T05:25:09.292Z,15.30
2022-08-30T05:27:42.360Z,15.30
2022-08-30T05:30:10.869Z,15.40
2022-08-30T05:32:38.510Z,15.40
2022-08-30T05:35:07.894Z,15.50
2022-08-30T05:37:35.877Z,15.60
2022-08-30T05:40:05.355Z,15.60
2022-08-30T05:42:41.506Z,15.60
2022-08-30T05:45:10.097Z,15.70
2022-08-30T05:47:38.384Z,15.70
2022-08-30T05:50:07.399Z,15.70
2022-08-30T05:52:37.002Z,15.80
2022-08-30T05:55:07.742Z,15.90
2022-08-30T05:57:37.712Z,15.90
2022-08-30T06:00:19.166Z,15.90
2022-08-30T06:02:47.037Z,16.00
2022-08-30T06:05:14.893Z,16.00
2022-08-30T06:07:43.575Z,16.10
2022-08-30T06:10:12.603Z,16.10
2022-08-30T06:12:40.841Z,16.20
2022-08-30T06:15:08.913Z,16.20
2022-08-30T06:17:36.594Z,16.20
2022-08-30T06:20:04.653Z,16.30
2022-08-30T06:22:32.358Z,16.30
2022-08-30T06:24:59.992Z,16.40
2022-08-30T06:27:27.591Z,16.40
2022-08-30T06:29:55.173Z,16.40
2022-08-30T06:32:22.894Z,16.40
2022-08-30T06:34:50.512Z,16.50
2022-08-30T06:37:29.671Z,16.50
2022-08-30T06:39:59.414Z,16.50
2022-08-30T06:42:32.150Z,16.60
2022-08-30T06:45:01.717Z,16.60
2022-08-30T06:47:30.110Z,16.70
2022-08-30T06:49:58.968Z,16.70
2022-08-30T06:52:27.034Z,16.70
2022-08-30T06:54:59.045Z,16.80
2022-08-30T06:57:26.792Z,16.90
2022-08-30T06:59:58.344Z,17.10
2022-08-30T07:02:26.625Z,17.20
2022-08-30T07:04:54.517Z,17.30
2022-08-30T07:07:23.250Z,17.40
2022-08-30T07:09:50.991Z,17.50
2022-08-30T07:12:18.634Z,17.60
2022-08-30T07:14:46.453Z,17.60
2022-08-30T07:17:34.888Z,17.60
2022-08-30T07:20:04.863Z,17.70
2022-08-30T07:22:35.725Z,17.60
2022-08-30T07:25:03.526Z,17.70
2022-08-30T07:27:31.675Z,17.70
2022-08-30T07:30:01.173Z,17.80
2022-08-30T07:32:29.465Z,17.90
2022-08-30T07:34:57.158Z,18.10
2022-08-30T07:37:24.863Z,18.40
2022-08-30T07:39:52.899Z,18.60
2022-08-30T07:42:20.542Z,18.80
2022-08-30T07:44:48.254Z,18.90
2022-08-30T07:47:16.844Z,18.90
2022-08-30T07:49:44.448Z,18.90
2022-08-30T07:52:12.114Z,18.90
2022-08-30T07:54:39.729Z,18.90
2022-08-30T07:57:07.285Z,18.90
2022-08-30T07:59:36.181Z,18.90
2022-08-30T08:02:04.785Z,18.90
2022-08-30T08:04:33.244Z,18.80
2022-08-30T08:07:01.046Z,18.90
2022-08-30T08:09:28.705Z,19.00
2022-08-30T08:11:56.488Z,19.30
2022-08-30T08:14:24.321Z,19.60
2022-08-30T08:16:52.553Z,20.00
2022-08-30T08:19:20.640Z,20.40
2022-08-30T08:21:52.786Z,20.60
2022-08-30T08:24:28.222Z,20.70
2022-08-30T08:26:56.264Z,20.80
2022-08-30T08:29:24.140Z,20.80
2022-08-30T08:31:51.797Z,20.70
2022-08-30T08:34:23.315Z,20.60
2022-08-30T08:36:51.339Z,20.60
2022-08-30T08:39:19.160Z,20.60
2022-08-30T08:42:08.150Z,20.60
2022-08-30T08:44:53.477Z,20.60
2022-08-30T08:47:28.434Z,20.60
2022-08-30T08:50:00.117Z,20.60
2022-08-30T08:53:20.546Z,20.60
2022-08-30T08:55:58.639Z,20.50
2022-08-30T08:58:29.340Z,20.40
2022-08-30T09:00:59.159Z,20.40
2022-08-30T09:03:29.279Z,20.30
2022-08-30T09:05:59.144Z,20.30
2022-08-30T09:08:27.460Z,20.40
2022-08-30T09:10:57.047Z,20.60
2022-08-30T09:13:25.756Z,20.90
2022-08-30T09:15:57.436Z,20.90
2022-08-30T09:18:51.265Z,21.10
2022-08-30T09:21:25.912Z,21.20
2022-08-30T09:23:59.920Z,21.20
2022-08-30T09:26:36.686Z,21.30
2022-08-30T09:29:16.281Z,21.50
2022-08-30T09:32:10.064Z,21.70
2022-08-30T09:34:44.177Z,21.80
2022-08-30T09:37:26.245Z,21.90
2022-08-30T09:39:54.225Z,22.00
2022-08-30T09:42:30.074Z,22.30
2022-08-30T09:45:10.631Z,22.60
2022-08-30T09:47:43.872Z,22.80
2022-08-30T09:50:18.694Z,23.00
2022-08-30T09:53:13.258Z,23.30
2022-08-30T09:55:41.219Z,23.50
2022-08-30T09:58:12.887Z,23.60
2022-08-30T10:00:47.662Z,23.60
2022-08-30T10:03:41.437Z,23.70
2022-08-30T10:06:40.503Z,24.00
2022-08-30T10:09:15.554Z,24.40
2022-08-30T10:12:04.376Z,24.60
2022-08-30T10:14:59.761Z,24.90
2022-08-30T10:17:45.204Z,25.00
2022-08-30T10:20:39.750Z,25.00
2022-08-30T10:23:12.713Z,25.00
2022-08-30T10:25:48.903Z,25.00
2022-08-30T10:28:31.516Z,24.90
2022-08-30T10:31:07.836Z,24.80
2022-08-30T10:33:43.420Z,24.70
2022-08-30T10:36:14.227Z,25.00
2022-08-30T10:38:50.024Z,25.30
2022-08-30T10:41:24.517Z,26.00
2022-08-30T10:44:21.161Z,26.50
2022-08-30T10:47:05.031Z,27.20
2022-08-30T10:49:42.054Z,27.90
2022-08-30T10:52:18.750Z,28.70
2022-08-30T10:54:55.002Z,29.20
2022-08-30T10:57:23.402Z,29.30
2022-08-30T11:00:06.095Z,29.40
2022-08-30T11:02:52.866Z,29.60
2022-08-30T11:05:42.392Z,29.90
2022-08-30T11:08:28.582Z,30.30
2022-08-30T11:11:16.851Z,30.50
2022-08-30T11:13:46.154Z,30.60
2022-08-30T11:16:16.906Z,30.70
2022-08-30T11:18:51.664Z,31.00
2022-08-30T11:21:41.454Z,31.20
2022-08-30T11:24:23.734Z,31.70
2022-08-30T11:26:57.714Z,31.50
2022-08-30T11:29:42.099Z,30.90
2022-08-30T11:32:13.220Z,30.50
2022-08-30T11:34:47.376Z,30.40
2022-08-30T11:37:37.218Z,30.30
2022-08-30T11:40:06.745Z,29.80
2022-08-30T11:42:45.021Z,29.30
2022-08-30T11:45:36.168Z,28.90
2022-08-30T11:48:28.423Z,28.80
2022-08-30T11:51:05.320Z,28.70
2022-08-30T11:53:58.380Z,28.90
2022-08-30T11:56:54.542Z,29.20
2022-08-30T11:59:59.988Z,29.50
2022-08-30T12:02:39.418Z,29.90
2022-08-30T12:05:07.842Z,30.10
2022-08-30T12:08:01.846Z,29.80
2022-08-30T12:10:38.980Z,29.20
2022-08-30T12:13:31.027Z,28.40
2022-08-30T12:16:22.197Z,27.60
2022-08-30T12:19:18.237Z,26.90
2022-08-30T12:22:00.574Z,26.50
2022-08-30T12:24:36.867Z,26.20
2022-08-30T12:27:25.167Z,26.10
2022-08-30T12:30:01.374Z,26.50
2022-08-30T12:32:33.489Z,26.80
2022-08-30T12:35:04.582Z,27.00
2022-08-30T12:37:42.263Z,26.90
2022-08-30T12:40:21.173Z,26.60
2022-08-30T12:43:02.817Z,26.40
2022-08-30T12:45:41.805Z,26.00
2022-08-30T12:48:14.443Z,25.70
2022-08-30T12:50:52.153Z,25.40
2022-08-30T12:53:37.525Z,25.20
2022-08-30T12:56:11.388Z,25.00
2022-08-30T12:58:54.113Z,24.90
2022-08-30T13:01:28.198Z,24.80
2022-08-30T13:03:56.561Z,24.60
2022-08-30T13:06:56.043Z,24.50
2022-08-30T13:09:53.036Z,24.30
2022-08-30T13:12:26.356Z,24.20
2022-08-30T13:15:16.554Z,24.10
2022-08-30T13:17:45.748Z,24.00
2022-08-30T13:20:16.987Z,24.00
2022-08-30T13:23:27.550Z,23.90
2022-08-30T13:25:55.798Z,23.90
2022-08-30T13:28:24.198Z,23.80
2022-08-30T13:31:16.376Z,23.90
2022-08-30T13:33:47.631Z,23.90
2022-08-30T13:36:16.637Z,24.00
2022-08-30T13:38:45.060Z,24.10
2022-08-30T13:41:13.036Z,24.30
2022-08-30T13:46:37.145Z,24.50
2022-08-30T13:49:45.353Z,24.80
2022-08-30T13:52:19.813Z,24.90
2022-08-30T13:54:57.825Z,25.00
2022-08-30T14:00:19.720Z,24.60
2022-08-30T14:02:54.051Z,24.30
2022-08-30T14:08:45.320Z,24.00
2022-08-30T14:11:18.579Z,23.90
2022-08-30T14:16:37.397Z,24.00
2022-08-30T14:19:05.880Z,24.20
2022-08-30T14:21:36.187Z,24.50
2022-08-30T14:24:06.659Z,24.90
2022-08-30T14:26:47.723Z,25.30
2022-08-30T14:29:20.732Z,25.50
2022-08-30T14:31:48.994Z,25.70
2022-08-30T14:34:24.436Z,26.00
2022-08-30T14:36:54.557Z,26.10
2022-08-30T14:39:23.040Z,26.00
2022-08-30T14:41:53.459Z,25.80
2022-08-30T14:44:24.090Z,25.60
2022-08-30T14:46:57.896Z,25.50
2022-08-30T14:49:27.361Z,25.40
2022-08-30T14:51:56.089Z,25.30
2022-08-30T14:54:27.876Z,25.20
2022-08-30T14:56:56.358Z,25.20
2022-08-30T14:59:26.064Z,25.00
2022-08-30T15:01:54.353Z,24.70
2022-08-30T15:04:23.085Z,24.50
2022-08-30T15:06:51.599Z,24.20
2022-08-30T15:09:23.569Z,23.90
2022-08-30T15:11:58.497Z,23.80
2022-08-30T15:14:28.502Z,23.60
2022-08-30T15:16:58.712Z,23.50
2022-08-30T15:19:27.719Z,23.50
2022-08-30T15:22:04.788Z,23.40
2022-08-30T15:24:33.191Z,23.50
2022-08-30T15:27:01.987Z,23.40
2022-08-30T15:29:31.861Z,23.50
2022-08-30T15:32:02.011Z,23.50
2022-08-30T15:34:31.514Z,23.50
2022-08-30T15:36:59.505Z,23.40
2022-08-30T15:39:27.602Z,23.40
2022-08-30T15:42:01.300Z,23.30
2022-08-30T15:44:31.991Z,23.30
2022-08-30T15:47:00.222Z,23.30
2022-08-30T15:49:28.676Z,23.30
2022-08-30T15:52:02.354Z,23.30
2022-08-30T15:54:31.822Z,23.30
2022-08-30T15:57:00.312Z,23.30
2022-08-30T15:59:31.383Z,23.30
2022-08-30T16:01:59.745Z,23.40
2022-08-30T16:04:27.811Z,23.40
2022-08-30T16:06:58.561Z,23.40
2022-08-30T16:09:29.983Z,23.40
2022-08-30T16:12:01.008Z,23.40
2022-08-30T16:14:30.857Z,23.30
2022-08-30T16:16:59.262Z,23.30
2022-08-30T16:19:28.340Z,23.30
2022-08-30T16:22:00.068Z,23.20
2022-08-30T16:24:28.154Z,23.20
2022-08-30T16:26:59.033Z,23.10
2022-08-30T16:29:27.141Z,23.10
2022-08-30T16:31:57.420Z,23.10
2022-08-30T16:34:25.922Z,23.10
2022-08-30T16:36:54.059Z,23.00
2022-08-30T16:39:23.447Z,22.70
2022-08-30T16:41:54.303Z,23.00
2022-08-30T16:44:29.851Z,22.80
2022-08-30T16:46:58.347Z,22.80
2022-08-30T16:49:26.766Z,22.80
2022-08-30T16:51:55.124Z,22.80
2022-08-30T16:54:23.767Z,22.80
2022-08-30T16:56:52.586Z,22.80
2022-08-30T16:59:20.633Z,22.70
2022-08-30T17:01:51.702Z,22.70
2022-08-30T17:04:20.546Z,22.60
2022-08-30T17:06:50.191Z,22.50
2022-08-30T17:09:19.849Z,22.40
2022-08-30T17:11:48.577Z,22.30
2022-08-30T17:14:22.882Z,22.30
2022-08-30T17:16:57.400Z,22.20
2022-08-30T17:19:26.982Z,22.10
2022-08-30T17:21:58.198Z,22.10
2022-08-30T17:24:27.251Z,22.00
2022-08-30T17:26:55.403Z,22.00
2022-08-30T17:29:23.269Z,22.00
2022-08-30T17:31:54.016Z,21.90
2022-08-30T17:34:22.777Z,21.90
2022-08-30T17:36:52.753Z,21.80
2022-08-30T17:39:23.561Z,21.80
2022-08-30T17:41:51.834Z,21.70
2022-08-30T17:44:26.997Z,21.70
2022-08-30T17:46:57.335Z,21.70
2022-08-30T17:49:27.385Z,21.60
2022-08-30T17:51:57.119Z,21.60
2022-08-30T17:54:27.124Z,21.60
2022-08-30T17:56:56.362Z,21.50
2022-08-30T17:59:25.618Z,21.50
2022-08-30T18:01:59.383Z,21.50
2022-08-30T18:04:29.469Z,21.50
2022-08-30T18:06:59.798Z,21.40
2022-08-30T18:09:33.205Z,21.40
2022-08-30T18:16:49.417Z,21.30
2022-08-30T18:19:24.586Z,21.20
2022-08-30T18:21:55.507Z,21.10
2022-08-30T18:24:26.532Z,21.10
2022-08-30T18:26:56.317Z,21.00
2022-08-30T18:29:30.131Z,20.90
2022-08-30T18:32:03.627Z,20.80
2022-08-30T18:34:39.436Z,21.10
2022-08-30T18:37:12.502Z,20.70
2022-08-30T18:39:41.410Z,20.70
2022-08-30T18:42:14.249Z,20.60
2022-08-30T18:44:45.045Z,20.60
2022-08-30T18:47:15.517Z,20.50
2022-08-30T18:49:45.128Z,20.40
2022-08-30T18:52:13.451Z,20.40
2022-08-30T18:54:58.932Z,20.30
2022-08-30T18:57:26.732Z,20.30
2022-08-30T19:00:12.490Z,20.20
2022-08-30T19:02:40.445Z,20.10
2022-08-30T19:05:11.351Z,20.10
2022-08-30T19:07:45.576Z,20.10
2022-08-30T19:10:15.806Z,20.00
2022-08-30T19:12:51.811Z,20.00
2022-08-30T19:15:21.371Z,20.10
2022-08-30T19:17:50.438Z,20.00
2022-08-30T19:20:21.069Z,20.00
2022-08-30T19:23:14.272Z,20.00
2022-08-30T19:25:43.366Z,20.00
2022-08-30T19:28:12.336Z,20.00
2022-08-30T19:30:48.573Z,20.00
2022-08-30T19:33:17.653Z,19.90
2022-08-30T19:35:51.334Z,19.90
2022-08-30T19:38:20.147Z,19.80
2022-08-30T19:40:52.398Z,19.70
2022-08-30T19:43:22.479Z,19.60
2022-08-30T19:45:56.882Z,19.60
2022-08-30T19:48:32.723Z,19.50
2022-08-30T19:51:10.636Z,19.40
2022-08-30T19:53:38.891Z,19.30
2022-08-30T19:56:06.854Z,19.30
2022-08-30T19:59:09.446Z,19.20
2022-08-30T20:02:39.270Z,19.10
2022-08-30T20:05:10.727Z,19.10
2022-08-30T20:07:40.684Z,19.00
2022-08-30T20:10:13.678Z,19.00
2022-08-30T20:12:45.521Z,18.90
2022-08-30T20:15:18.241Z,18.90
2022-08-30T20:18:05.527Z,18.90
2022-08-30T20:20:49.460Z,18.80
2022-08-30T20:23:21.486Z,18.80
2022-08-30T20:25:57.379Z,18.70
2022-08-30T20:28:25.917Z,18.70
2022-08-30T20:30:56.997Z,18.60
2022-08-30T20:33:25.807Z,18.60
2022-08-30T20:35:54.301Z,18.50
2022-08-30T20:38:22.277Z,18.50
2022-08-30T20:40:56.724Z,18.50
2022-08-30T20:43:28.905Z,18.40
2022-08-30T20:45:56.947Z,18.40
2022-08-30T20:48:29.779Z,18.40
2022-08-30T20:51:04.698Z,18.30
2022-08-30T20:53:32.463Z,18.30
2022-08-30T20:56:11.842Z,18.30
2022-08-30T20:58:39.602Z,18.20
2022-08-30T21:01:20.515Z,18.20
2022-08-30T21:03:57.533Z,18.20
2022-08-30T21:06:28.977Z,18.20
2022-08-30T21:08:57.072Z,18.10
2022-08-30T21:11:26.684Z,18.20
2022-08-30T21:13:57.293Z,18.30
2022-08-30T21:16:25.206Z,18.30
2022-08-30T21:18:59.914Z,18.40
2022-08-30T21:21:32.918Z,18.40
2022-08-30T21:24:11.768Z,18.50
2022-08-30T21:26:41.827Z,18.40
2022-08-30T21:29:14.319Z,18.40
2022-08-30T21:31:44.026Z,18.30
2022-08-30T21:34:18.060Z,18.30
2022-08-30T21:36:46.880Z,18.20
2022-08-30T21:39:18.954Z,18.20
2022-08-30T21:41:49.292Z,18.10
2022-08-30T21:44:21.820Z,18.00
2022-08-30T21:47:23.273Z,18.00
2022-08-30T21:49:51.951Z,17.90
2022-08-30T21:52:19.658Z,17.80
2022-08-30T21:54:48.983Z,17.80
2022-08-30T21:57:17.091Z,17.70
2022-08-30T21:59:45.674Z,17.70
2022-08-30T22:02:13.438Z,17.60
2022-08-30T22:04:41.921Z,17.60
2022-08-30T22:07:09.732Z,17.50
2022-08-30T22:09:40.576Z,17.50
2022-08-30T22:12:08.531Z,17.40
2022-08-30T22:14:36.396Z,17.40
2022-08-30T22:17:19.182Z,17.40
2022-08-30T22:19:55.150Z,17.40
2022-08-30T22:22:22.965Z,17.30
2022-08-30T22:24:52.313Z,17.30
2022-08-30T22:27:20.090Z,17.30
2022-08-30T22:29:50.366Z,17.30
2022-08-30T22:32:24.034Z,17.30
2022-08-30T22:34:52.123Z,17.30
2022-08-30T22:37:29.168Z,17.30
2022-08-30T22:39:57.145Z,17.30
2022-08-30T22:42:27.423Z,17.30
2022-08-30T22:44:57.817Z,17.30
2022-08-30T22:47:25.698Z,17.30
2022-08-30T22:49:55.810Z,17.20
2022-08-30T22:52:32.272Z,17.20
2022-08-30T22:55:00.629Z,17.20
2022-08-30T22:57:28.420Z,17.20
2022-08-30T22:59:58.548Z,17.20
2022-08-30T23:02:26.432Z,17.20
2022-08-30T23:04:54.229Z,17.10
2022-08-30T23:07:22.177Z,17.10
2022-08-30T23:09:51.747Z,17.10
2022-08-30T23:12:22.438Z,17.10
2022-08-30T23:14:53.207Z,17.10
2022-08-30T23:17:22.655Z,17.00
2022-08-30T23:19:50.429Z,17.00
2022-08-30T23:22:18.198Z,17.00
2022-08-30T23:25:12.649Z,17.00
2022-08-30T23:28:04.418Z,16.90
2022-08-30T23:30:50.633Z,16.90
2022-08-30T23:33:48.658Z,16.90
2022-08-30T23:36:35.117Z,16.80
2022-08-30T23:39:22.111Z,16.80
2022-08-30T23:42:09.233Z,16.70
2022-08-30T23:44:55.537Z,16.70
2022-08-30T23:47:42.048Z,16.70
2022-08-30T23:50:28.725Z,16.60
2022-08-30T23:53:17.880Z,16.60
2022-08-30T23:56:08.841Z,16.60
2022-08-30T23:58:58.050Z,16.60
